Lohman, Missouri
Current Conditions -  °F | °C
As of 12:53 PM on Thursday 30 Oct 2014 (Local Time) from KJEF Reporting Station
Light Rain Light Rain  
Wind Chill: 50°   Ceiling: 7000
Heat Index: 50°   Visibility: 10mi
Dew Point: 42°   Wind: 5mph
Humidity: 74%   Direction: 140°SE
Pressure: 30.05"   Gusts: NA
Location:  38.54°N, 92.36°W
Report Text: KJEF 301753Z 14004KT 10SM -RA OVC070 10/06 A3005 RMK AO2 RAE1656B52 SLP168 P0000 60001 T01000056 10100 20022 56026
Loading
Personal Weather Stations






























Interactive Weather Map
Tropical Storm Tracking
New forecast layout! Learn more

10-Day Weather Forecast

Advertisements
Track Severe Weather on mobile